createdAt,value
2019-05-16T00:00:19.124Z,1015.34
2019-05-16T00:01:19.332Z,1015.36
2019-05-16T00:02:18.556Z,1015.31
2019-05-16T00:03:18.670Z,1015.27
2019-05-16T00:04:17.822Z,1015.29
2019-05-16T00:05:18.635Z,1015.27
2019-05-16T00:06:17.937Z,1015.27
2019-05-16T00:07:19.081Z,1015.27
2019-05-16T00:08:17.856Z,1015.20
2019-05-16T00:09:18.321Z,1015.23
2019-05-16T00:10:18.675Z,1015.18
2019-05-16T00:11:17.971Z,1015.21
2019-05-16T00:12:18.430Z,1015.21
2019-05-16T00:13:18.588Z,1015.26
2019-05-16T00:14:18.710Z,1015.17
2019-05-16T00:15:18.252Z,1015.17
2019-05-16T00:16:18.684Z,1015.17
2019-05-16T00:17:18.701Z,1015.15
2019-05-16T00:18:17.802Z,1015.12
2019-05-16T00:19:18.118Z,1015.11
2019-05-16T00:20:18.857Z,1015.13
2019-05-16T00:21:17.919Z,1015.12
2019-05-16T00:22:18.143Z,1015.11
2019-05-16T00:23:18.270Z,1015.10
2019-05-16T00:24:18.528Z,1015.09
2019-05-16T00:25:17.964Z,1015.09
2019-05-16T00:26:16.565Z,1015.09
2019-05-16T00:27:18.450Z,1015.07
2019-05-16T00:28:18.023Z,1015.02
2019-05-16T00:29:18.417Z,1015.04
2019-05-16T00:30:18.111Z,1015.04
2019-05-16T00:31:18.316Z,1015.03
2019-05-16T00:32:18.938Z,1015.03
2019-05-16T00:33:18.335Z,1015.04
2019-05-16T00:34:18.746Z,1015.01
2019-05-16T00:35:18.436Z,1014.97
2019-05-16T00:36:18.684Z,1014.99
2019-05-16T00:37:18.347Z,1014.98
2019-05-16T00:38:18.269Z,1014.98
2019-05-16T00:39:18.634Z,1014.95
2019-05-16T00:40:18.582Z,1014.91
2019-05-16T00:41:18.345Z,1014.91
2019-05-16T00:42:18.043Z,1014.93
2019-05-16T00:43:18.289Z,1014.85
2019-05-16T00:44:18.801Z,1014.86
2019-05-16T00:45:18.518Z,1014.85
2019-05-16T00:46:16.399Z,1014.82
2019-05-16T00:47:17.851Z,1014.82
2019-05-16T00:48:18.187Z,1014.85
2019-05-16T00:49:18.573Z,1014.81
2019-05-16T00:50:18.223Z,1014.82
2019-05-16T00:51:18.338Z,1014.82
2019-05-16T00:52:18.323Z,1014.83
2019-05-16T00:53:18.225Z,1014.82
2019-05-16T00:54:18.459Z,1014.80
2019-05-16T00:55:17.944Z,1014.81
2019-05-16T00:56:18.366Z,1014.86
2019-05-16T00:57:18.648Z,1014.81
2019-05-16T00:58:18.808Z,1014.80
2019-05-16T00:59:18.252Z,1014.80
2019-05-16T01:00:18.161Z,1014.79
2019-05-16T01:01:18.759Z,1014.77
2019-05-16T01:02:18.256Z,1014.79
2019-05-16T01:03:16.248Z,1014.78
2019-05-16T01:04:18.171Z,1014.78
2019-05-16T01:05:18.882Z,1014.81
2019-05-16T01:06:21.904Z,1014.79
2019-05-16T01:07:18.537Z,1014.77
2019-05-16T01:08:18.619Z,1014.78
2019-05-16T01:09:16.197Z,1014.77
2019-05-16T01:10:18.127Z,1014.79
2019-05-16T01:11:18.346Z,1014.78
2019-05-16T01:12:17.832Z,1014.73
2019-05-16T01:13:18.393Z,1014.73
2019-05-16T01:14:17.715Z,1014.75
2019-05-16T01:15:18.190Z,1014.71
2019-05-16T01:16:18.533Z,1014.74
2019-05-16T01:17:18.115Z,1014.65
2019-05-16T01:18:18.473Z,1014.66
2019-05-16T01:19:16.117Z,1014.65
2019-05-16T01:20:16.105Z,1014.64
2019-05-16T01:21:18.371Z,1014.57
2019-05-16T01:22:18.541Z,1014.60
2019-05-16T01:23:18.127Z,1014.61
2019-05-16T01:24:16.075Z,1014.55
2019-05-16T01:25:16.065Z,1014.54
2019-05-16T01:26:18.373Z,1014.56
2019-05-16T01:27:18.357Z,1014.55
2019-05-16T01:28:18.164Z,1014.52
2019-05-16T01:29:16.029Z,1014.55
2019-05-16T01:30:18.446Z,1014.54
2019-05-16T01:31:16.012Z,1014.53
2019-05-16T01:32:16.013Z,1014.54
2019-05-16T01:33:16.000Z,1014.51
2019-05-16T01:34:18.038Z,1014.52
2019-05-16T01:35:18.841Z,1014.51
2019-05-16T01:36:19.361Z,1014.48
2019-05-16T01:37:15.964Z,1014.52
2019-05-16T01:38:17.901Z,1014.51
2019-05-16T01:39:18.156Z,1014.47
2019-05-16T01:40:15.940Z,1014.48
2019-05-16T01:41:17.862Z,1014.49
2019-05-16T01:42:15.921Z,1014.50
2019-05-16T01:43:17.878Z,1014.49
2019-05-16T01:44:18.182Z,1014.47
2019-05-16T01:45:15.903Z,1014.43
2019-05-16T01:46:17.850Z,1014.42
2019-05-16T01:47:18.148Z,1014.47
2019-05-16T01:48:15.877Z,1014.39
2019-05-16T01:49:15.865Z,1014.44
2019-05-16T01:50:17.883Z,1014.40
2019-05-16T01:51:18.212Z,1014.40
2019-05-16T01:52:17.775Z,1014.40
2019-05-16T01:53:17.857Z,1014.37
2019-05-16T01:54:17.886Z,1014.34
2019-05-16T01:55:15.814Z,1014.32
2019-05-16T01:56:17.815Z,1014.37
2019-05-16T01:57:17.910Z,1014.31
2019-05-16T01:58:15.795Z,1014.34
2019-05-16T01:59:18.008Z,1014.36
2019-05-16T02:00:23.245Z,1014.34
2019-05-16T02:01:16.015Z,1014.36
2019-05-16T02:02:15.756Z,1014.37
2019-05-16T02:03:15.748Z,1014.36
2019-05-16T02:04:18.214Z,1014.37
2019-05-16T02:05:15.736Z,1014.37
2019-05-16T02:06:18.164Z,1014.33
2019-05-16T02:07:15.715Z,1014.35
2019-05-16T02:08:17.997Z,1014.31
2019-05-16T02:09:15.703Z,1014.32
2019-05-16T02:10:17.906Z,1014.33
2019-05-16T02:11:17.943Z,1014.29
2019-05-16T02:12:15.674Z,1014.31
2019-05-16T02:13:17.742Z,1014.26
2019-05-16T02:14:17.599Z,1014.30
2019-05-16T02:15:18.037Z,1014.26
2019-05-16T02:16:15.642Z,1014.28
2019-05-16T02:17:18.155Z,1014.24
2019-05-16T02:18:15.628Z,1014.24
2019-05-16T02:19:15.624Z,1014.24
2019-05-16T02:20:17.811Z,1014.26
2019-05-16T02:21:15.601Z,1014.23
2019-05-16T02:22:17.785Z,1014.25
2019-05-16T02:23:15.585Z,1014.22
2019-05-16T02:24:17.883Z,1014.18
2019-05-16T02:25:15.566Z,1014.19
2019-05-16T02:26:15.563Z,1014.17
2019-05-16T02:27:15.549Z,1014.16
2019-05-16T02:28:15.550Z,1014.16
2019-05-16T02:29:15.537Z,1014.09
2019-05-16T02:30:15.530Z,1014.16
2019-05-16T02:31:15.821Z,1014.13
2019-05-16T02:32:15.511Z,1014.09
2019-05-16T02:33:15.506Z,1014.09
2019-05-16T02:34:15.502Z,1014.11
2019-05-16T02:35:15.487Z,1014.17
2019-05-16T02:36:15.480Z,1014.15
2019-05-16T02:37:24.585Z,1014.13
2019-05-16T02:38:15.459Z,1014.13
2019-05-16T02:39:15.452Z,1014.11
2019-05-16T02:40:15.448Z,1014.10
2019-05-16T02:41:15.440Z,1014.10
2019-05-16T02:42:15.429Z,1014.09
2019-05-16T02:43:15.424Z,1014.06
2019-05-16T02:44:15.412Z,1014.10
2019-05-16T02:45:15.405Z,1014.08
2019-05-16T02:46:15.394Z,1014.07
2019-05-16T02:47:15.385Z,1014.03
2019-05-16T02:48:15.383Z,1014.03
2019-05-16T02:49:15.373Z,1014.05
2019-05-16T02:50:15.365Z,1014.02
2019-05-16T02:51:15.358Z,1014.04
2019-05-16T02:52:15.350Z,1014.00
2019-05-16T02:53:15.342Z,1014.05
2019-05-16T02:54:15.335Z,1014.03
2019-05-16T02:55:15.326Z,1013.92
2019-05-16T02:56:15.324Z,1014.01
2019-05-16T02:57:15.310Z,1013.96
2019-05-16T02:58:15.298Z,1013.99
2019-05-16T02:59:15.300Z,1013.95
2019-05-16T03:00:15.286Z,1013.93
2019-05-16T03:01:15.280Z,1013.93
2019-05-16T03:02:15.269Z,1013.96
2019-05-16T03:03:15.259Z,1013.94
2019-05-16T03:04:15.251Z,1013.97
2019-05-16T03:05:15.242Z,1013.92
2019-05-16T03:06:15.232Z,1013.91
2019-05-16T03:07:32.803Z,1013.87
2019-05-16T03:08:15.218Z,1013.91
2019-05-16T03:09:15.213Z,1013.89
2019-05-16T03:10:15.198Z,1013.88
2019-05-16T03:11:15.192Z,1013.88
2019-05-16T03:12:15.190Z,1013.85
2019-05-16T03:13:15.191Z,1013.86
2019-05-16T03:14:15.174Z,1013.81
2019-05-16T03:15:15.168Z,1013.83
2019-05-16T03:16:15.155Z,1013.82
2019-05-16T03:17:15.150Z,1013.84
2019-05-16T03:18:16.904Z,1013.85
2019-05-16T03:19:15.148Z,1013.79
2019-05-16T03:20:15.123Z,1013.82
2019-05-16T03:21:15.111Z,1013.79
2019-05-16T03:22:15.101Z,1013.78
2019-05-16T03:23:15.094Z,1013.77
2019-05-16T03:24:15.107Z,1013.73
2019-05-16T03:25:15.097Z,1013.74
2019-05-16T03:26:15.065Z,1013.72
2019-05-16T03:27:15.071Z,1013.68
2019-05-16T03:28:15.054Z,1013.69
2019-05-16T03:29:15.045Z,1013.71
2019-05-16T03:30:16.940Z,1013.71
2019-05-16T03:31:15.924Z,1013.73
2019-05-16T03:32:15.021Z,1013.67
2019-05-16T03:33:23.406Z,1013.68
2019-05-16T03:34:16.936Z,1013.69
2019-05-16T03:35:16.694Z,1013.67
2019-05-16T03:36:15.919Z,1013.68
2019-05-16T03:37:15.271Z,1013.71
2019-05-16T03:38:14.977Z,1013.67
2019-05-16T03:39:14.970Z,1013.69
2019-05-16T03:40:14.975Z,1013.73
2019-05-16T03:41:14.950Z,1013.71
2019-05-16T03:42:14.946Z,1013.71
2019-05-16T03:43:14.933Z,1013.69
2019-05-16T03:44:14.928Z,1013.66
2019-05-16T03:45:14.926Z,1013.66
2019-05-16T03:46:14.913Z,1013.67
2019-05-16T03:47:14.911Z,1013.64
2019-05-16T03:48:14.898Z,1013.66
2019-05-16T03:49:14.884Z,1013.70
2019-05-16T03:50:16.416Z,1013.63
2019-05-16T03:51:16.420Z,1013.58
2019-05-16T03:52:14.868Z,1013.57
2019-05-16T03:53:16.422Z,1013.61
2019-05-16T03:54:14.843Z,1013.61
2019-05-16T03:55:14.835Z,1013.59
2019-05-16T03:56:21.470Z,1013.60
2019-05-16T03:57:14.830Z,1013.56
2019-05-16T03:58:14.825Z,1013.61
2019-05-16T03:59:14.809Z,1013.57
2019-05-16T04:00:14.800Z,1013.59
2019-05-16T04:01:14.791Z,1013.61
2019-05-16T04:02:14.782Z,1013.56
2019-05-16T04:03:14.774Z,1013.60
2019-05-16T04:04:14.766Z,1013.58
2019-05-16T04:05:14.761Z,1013.57
2019-05-16T04:06:14.752Z,1013.55
2019-05-16T04:07:14.744Z,1013.54
2019-05-16T04:08:19.534Z,1013.56
2019-05-16T04:09:14.731Z,1013.57
2019-05-16T04:10:14.721Z,1013.57
2019-05-16T04:11:18.245Z,1013.57
2019-05-16T04:12:14.704Z,1013.57
2019-05-16T04:13:14.694Z,1013.56
2019-05-16T04:14:14.689Z,1013.58
2019-05-16T04:15:14.687Z,1013.54
2019-05-16T04:16:14.670Z,1013.55
2019-05-16T04:17:14.675Z,1013.59
2019-05-16T04:18:14.656Z,1013.56
2019-05-16T04:19:14.651Z,1013.53
2019-05-16T04:20:14.642Z,1013.54
2019-05-16T04:21:17.567Z,1013.50
2019-05-16T04:22:16.434Z,1013.52
2019-05-16T04:23:14.624Z,1013.48
2019-05-16T04:24:14.612Z,1013.53
2019-05-16T04:25:14.603Z,1013.54
2019-05-16T04:26:14.592Z,1013.56
2019-05-16T04:27:14.585Z,1013.54
2019-05-16T04:28:14.577Z,1013.56
2019-05-16T04:29:14.571Z,1013.56
2019-05-16T04:30:14.568Z,1013.58
2019-05-16T04:31:14.554Z,1013.60
2019-05-16T04:32:14.548Z,1013.55
2019-05-16T04:33:14.538Z,1013.55
2019-05-16T04:34:14.528Z,1013.52
2019-05-16T04:35:14.531Z,1013.52
2019-05-16T04:36:14.516Z,1013.54
2019-05-16T04:37:16.440Z,1013.52
2019-05-16T04:38:30.286Z,1013.55
2019-05-16T04:39:14.490Z,1013.54
2019-05-16T04:40:14.485Z,1013.56
2019-05-16T04:41:14.483Z,1013.58
2019-05-16T04:42:14.479Z,1013.54
2019-05-16T04:43:14.472Z,1013.59
2019-05-16T04:44:14.461Z,1013.51
2019-05-16T04:45:14.452Z,1013.55
2019-05-16T04:46:14.442Z,1013.51
2019-05-16T04:47:14.432Z,1013.48
2019-05-16T04:48:14.426Z,1013.46
2019-05-16T04:49:14.424Z,1013.45
2019-05-16T04:50:15.952Z,1013.48
2019-05-16T04:51:15.070Z,1013.49
2019-05-16T04:52:14.401Z,1013.43
2019-05-16T04:53:14.397Z,1013.46
2019-05-16T04:54:14.382Z,1013.47
2019-05-16T04:55:14.378Z,1013.52
2019-05-16T04:56:14.369Z,1013.49
2019-05-16T04:57:14.361Z,1013.51
2019-05-16T04:58:14.350Z,1013.47
2019-05-16T04:59:16.488Z,1013.46
2019-05-16T05:00:14.339Z,1013.45
2019-05-16T05:01:14.339Z,1013.49
2019-05-16T05:02:14.325Z,1013.51
2019-05-16T05:03:14.320Z,1013.47
2019-05-16T05:04:15.447Z,1013.46
2019-05-16T05:05:14.303Z,1013.46
2019-05-16T05:06:14.293Z,1013.42
2019-05-16T05:07:14.285Z,1013.42
2019-05-16T05:08:14.282Z,1013.43
2019-05-16T05:09:14.276Z,1013.40
2019-05-16T05:10:14.270Z,1013.38
2019-05-16T05:11:14.262Z,1013.37
2019-05-16T05:12:14.251Z,1013.41
2019-05-16T05:13:14.248Z,1013.37
2019-05-16T05:14:14.241Z,1013.37
2019-05-16T05:15:14.237Z,1013.45
2019-05-16T05:16:14.243Z,1013.38
2019-05-16T05:17:14.225Z,1013.38
2019-05-16T05:18:14.216Z,1013.38
2019-05-16T05:19:14.207Z,1013.41
2019-05-16T05:20:14.203Z,1013.40
2019-05-16T05:21:14.194Z,1013.46
2019-05-16T05:22:14.183Z,1013.41
2019-05-16T05:23:14.193Z,1013.43
2019-05-16T05:24:14.181Z,1013.44
2019-05-16T05:25:14.168Z,1013.41
2019-05-16T05:26:14.161Z,1013.40
2019-05-16T05:27:14.160Z,1013.42
2019-05-16T05:28:14.154Z,1013.44
2019-05-16T05:29:14.152Z,1013.47
2019-05-16T05:30:15.982Z,1013.41
2019-05-16T05:31:14.136Z,1013.39
2019-05-16T05:32:14.625Z,1013.37
2019-05-16T05:33:15.976Z,1013.37
2019-05-16T05:34:15.965Z,1013.33
2019-05-16T05:35:14.118Z,1013.34
2019-05-16T05:36:14.114Z,1013.35
2019-05-16T05:37:14.104Z,1013.34
2019-05-16T05:38:14.102Z,1013.37
2019-05-16T05:39:15.586Z,1013.40
2019-05-16T05:40:14.093Z,1013.41
2019-05-16T05:41:14.100Z,1013.41
2019-05-16T05:42:14.090Z,1013.41
2019-05-16T05:43:14.088Z,1013.40
2019-05-16T05:44:14.097Z,1013.37
2019-05-16T05:45:14.075Z,1013.37
2019-05-16T05:46:14.074Z,1013.36
2019-05-16T05:47:14.069Z,1013.29
2019-05-16T05:48:14.069Z,1013.34
2019-05-16T05:49:14.056Z,1013.40
2019-05-16T05:50:14.059Z,1013.38
2019-05-16T05:51:14.054Z,1013.35
2019-05-16T05:52:14.051Z,1013.36
2019-05-16T05:53:14.053Z,1013.34
2019-05-16T05:54:14.051Z,1013.34
2019-05-16T05:55:14.046Z,1013.31
2019-05-16T05:56:14.053Z,1013.34
2019-05-16T05:57:14.036Z,1013.35
2019-05-16T05:58:14.036Z,1013.41
2019-05-16T05:59:14.050Z,1013.37
2019-05-16T06:00:14.033Z,1013.39
2019-05-16T06:01:14.027Z,1013.38
2019-05-16T06:02:14.030Z,1013.40
2019-05-16T06:03:14.017Z,1013.45
2019-05-16T06:04:14.017Z,1013.46
2019-05-16T06:05:14.019Z,1013.47
2019-05-16T06:06:14.014Z,1013.41
2019-05-16T06:07:14.014Z,1013.42
2019-05-16T06:08:14.014Z,1013.43
2019-05-16T06:09:25.402Z,1013.46
2019-05-16T06:10:14.003Z,1013.44
2019-05-16T06:11:14.002Z,1013.45
2019-05-16T06:12:14.002Z,1013.44
2019-05-16T06:13:14.003Z,1013.40
2019-05-16T06:14:14.001Z,1013.34
2019-05-16T06:15:13.995Z,1013.41
2019-05-16T06:16:13.990Z,1013.43
2019-05-16T06:17:13.995Z,1013.44
2019-05-16T06:18:13.995Z,1013.43
2019-05-16T06:19:13.992Z,1013.44
2019-05-16T06:20:14.752Z,1013.44
2019-05-16T06:21:13.990Z,1013.45
2019-05-16T06:22:13.984Z,1013.43
2019-05-16T06:23:13.984Z,1013.43
2019-05-16T06:24:16.177Z,1013.37
2019-05-16T06:25:14.123Z,1013.39
2019-05-16T06:26:13.984Z,1013.35
2019-05-16T06:27:13.982Z,1013.37
2019-05-16T06:28:13.981Z,1013.33
2019-05-16T06:29:13.977Z,1013.34
2019-05-16T06:30:13.978Z,1013.31
2019-05-16T06:31:14.582Z,1013.35
2019-05-16T06:32:13.978Z,1013.35
2019-05-16T06:33:13.975Z,1013.40
2019-05-16T06:34:15.330Z,1013.38
2019-05-16T06:35:13.973Z,1013.36
2019-05-16T06:36:13.974Z,1013.38
2019-05-16T06:37:13.979Z,1013.34
2019-05-16T06:38:13.981Z,1013.33
2019-05-16T06:39:13.989Z,1013.35
2019-05-16T06:40:13.976Z,1013.28
2019-05-16T06:41:13.975Z,1013.28
2019-05-16T06:42:13.978Z,1013.29
2019-05-16T06:43:13.974Z,1013.21
2019-05-16T06:44:13.977Z,1013.22
2019-05-16T06:45:13.985Z,1013.20
2019-05-16T06:46:13.982Z,1013.23
2019-05-16T06:47:19.725Z,1013.25
2019-05-16T06:48:13.977Z,1013.19
2019-05-16T06:49:13.981Z,1013.15
2019-05-16T06:50:13.985Z,1013.19
2019-05-16T06:51:13.982Z,1013.17
2019-05-16T06:52:13.984Z,1013.21
2019-05-16T06:53:13.988Z,1013.20
2019-05-16T06:54:13.983Z,1013.20
2019-05-16T06:55:13.983Z,1013.19
2019-05-16T06:56:13.979Z,1013.16
2019-05-16T06:57:13.984Z,1013.16
2019-05-16T06:58:13.980Z,1013.13
2019-05-16T06:59:13.983Z,1013.11
2019-05-16T07:00:13.981Z,1013.10
2019-05-16T07:01:13.984Z,1013.11
2019-05-16T07:02:26.569Z,1013.16
2019-05-16T07:03:13.976Z,1013.09
2019-05-16T07:04:13.991Z,1013.12
2019-05-16T07:05:13.971Z,1013.05
2019-05-16T07:06:29.890Z,1013.06
2019-05-16T07:07:13.965Z,1013.00
2019-05-16T07:08:14.530Z,1013.02
2019-05-16T07:09:13.970Z,1013.01
2019-05-16T07:10:13.966Z,1012.98
2019-05-16T07:11:13.969Z,1012.99
2019-05-16T07:12:13.967Z,1012.98
2019-05-16T07:13:15.472Z,1012.96
2019-05-16T07:14:13.958Z,1012.91
2019-05-16T07:15:13.954Z,1012.93
2019-05-16T07:16:13.950Z,1012.92
2019-05-16T07:17:13.950Z,1012.95
2019-05-16T07:18:13.955Z,1012.94
2019-05-16T07:19:13.945Z,1012.89
2019-05-16T07:20:13.939Z,1012.91
2019-05-16T07:21:13.941Z,1012.89
2019-05-16T07:22:13.950Z,1012.90
2019-05-16T07:23:13.933Z,1012.91
2019-05-16T07:24:16.592Z,1012.95
2019-05-16T07:25:13.923Z,1012.91
2019-05-16T07:26:13.920Z,1012.94
2019-05-16T07:27:13.916Z,1012.93
2019-05-16T07:28:13.939Z,1012.91
2019-05-16T07:29:13.913Z,1012.89
2019-05-16T07:30:13.913Z,1012.90
2019-05-16T07:31:17.875Z,1012.84
2019-05-16T07:32:13.901Z,1012.86
2019-05-16T07:33:13.910Z,1012.86
2019-05-16T07:34:14.646Z,1012.81
2019-05-16T07:35:13.890Z,1012.83
2019-05-16T07:36:15.929Z,1012.78
2019-05-16T07:37:13.881Z,1012.72
2019-05-16T07:38:13.877Z,1012.78
2019-05-16T07:39:13.873Z,1012.69
2019-05-16T07:40:20.038Z,1012.72
2019-05-16T07:41:14.206Z,1012.69
2019-05-16T07:42:13.866Z,1012.65
2019-05-16T07:43:13.862Z,1012.66
2019-05-16T07:44:13.860Z,1012.63
2019-05-16T07:45:13.852Z,1012.70
2019-05-16T07:46:13.857Z,1012.69
2019-05-16T07:47:13.851Z,1012.69
2019-05-16T07:48:13.843Z,1012.70
2019-05-16T07:49:13.842Z,1012.72
2019-05-16T07:50:13.836Z,1012.71
2019-05-16T07:51:13.832Z,1012.72
2019-05-16T07:52:13.830Z,1012.69
2019-05-16T07:53:13.830Z,1012.67
2019-05-16T07:54:13.831Z,1012.68
2019-05-16T07:55:13.823Z,1012.65
2019-05-16T07:56:13.827Z,1012.68
2019-05-16T07:57:19.346Z,1012.64
2019-05-16T07:58:13.812Z,1012.64
2019-05-16T07:59:13.812Z,1012.61
2019-05-16T08:00:13.804Z,1012.60
2019-05-16T08:01:13.816Z,1012.64
2019-05-16T08:02:13.808Z,1012.62
2019-05-16T08:03:13.804Z,1012.58
2019-05-16T08:04:13.804Z,1012.58
2019-05-16T08:05:17.548Z,1012.57
2019-05-16T08:06:13.810Z,1012.56
2019-05-16T08:07:13.795Z,1012.56
2019-05-16T08:08:13.801Z,1012.56
2019-05-16T08:09:13.786Z,1012.60
2019-05-16T08:10:13.795Z,1012.54
2019-05-16T08:11:15.552Z,1012.53
2019-05-16T08:12:13.783Z,1012.51
2019-05-16T08:13:17.460Z,1012.56
2019-05-16T08:14:13.781Z,1012.51
2019-05-16T08:15:13.775Z,1012.52
2019-05-16T08:16:13.775Z,1012.57
2019-05-16T08:17:15.555Z,1012.50
2019-05-16T08:18:13.762Z,1012.50
2019-05-16T08:19:13.762Z,1012.44
2019-05-16T08:20:13.763Z,1012.48
2019-05-16T08:21:16.905Z,1012.41
2019-05-16T08:22:13.759Z,1012.43
2019-05-16T08:23:13.750Z,1012.44
2019-05-16T08:24:15.119Z,1012.38
2019-05-16T08:25:13.748Z,1012.37
2019-05-16T08:26:13.745Z,1012.38
2019-05-16T08:27:13.742Z,1012.36
2019-05-16T08:28:13.788Z,1012.33
2019-05-16T08:29:13.792Z,1012.30
2019-05-16T08:30:13.749Z,1012.29
2019-05-16T08:31:13.729Z,1012.31
2019-05-16T08:32:13.726Z,1012.29
2019-05-16T08:33:13.822Z,1012.26
2019-05-16T08:34:15.583Z,1012.29
2019-05-16T08:35:13.731Z,1012.26
2019-05-16T08:36:13.718Z,1012.25
2019-05-16T08:37:36.320Z,1012.27
2019-05-16T08:38:13.753Z,1012.22
2019-05-16T08:39:13.707Z,1012.20
2019-05-16T08:40:13.707Z,1012.20
2019-05-16T08:41:17.108Z,1012.21
2019-05-16T08:42:13.694Z,1012.15
2019-05-16T08:43:13.691Z,1012.22
2019-05-16T08:44:13.689Z,1012.22
2019-05-16T08:45:13.687Z,1012.21
2019-05-16T08:46:13.685Z,1012.21
2019-05-16T08:47:13.683Z,1012.19
2019-05-16T08:48:13.678Z,1012.18
2019-05-16T08:49:13.675Z,1012.15
2019-05-16T08:51:13.666Z,1012.14
2019-05-16T08:52:13.757Z,1012.10
2019-05-16T08:53:13.937Z,1012.07
2019-05-16T08:54:13.754Z,1012.12
2019-05-16T08:55:13.821Z,1012.07
2019-05-16T08:56:13.649Z,1012.10
2019-05-16T08:57:26.124Z,1012.10
2019-05-16T08:58:13.769Z,1012.06
2019-05-16T08:59:13.723Z,1012.07
2019-05-16T09:01:14.955Z,1012.04
2019-05-16T09:02:13.623Z,1012.03
2019-05-16T09:03:13.639Z,1012.04
2019-05-16T09:04:13.629Z,1012.01
2019-05-16T09:05:14.118Z,1011.99
2019-05-16T09:06:13.625Z,1011.98
2019-05-16T09:07:13.620Z,1012.00
2019-05-16T09:08:13.619Z,1011.99
2019-05-16T09:10:35.700Z,1012.16
2019-05-16T09:10:45.770Z,1011.95
2019-05-16T09:11:29.360Z,1011.87
2019-05-16T09:12:17.198Z,1011.93
2019-05-16T09:13:13.649Z,1011.96
2019-05-16T09:14:13.596Z,1011.92
2019-05-16T09:15:13.595Z,1011.95
2019-05-16T09:16:13.591Z,1011.92
2019-05-16T09:17:13.593Z,1011.88
2019-05-16T09:18:13.590Z,1011.94
2019-05-16T09:18:30.895Z,1012.05
2019-05-16T09:18:32.827Z,1011.94
2019-05-16T09:19:13.587Z,1011.89
2019-05-16T09:20:13.583Z,1011.88
2019-05-16T09:21:13.576Z,1011.87
2019-05-16T09:22:13.573Z,1011.86
2019-05-16T09:23:13.572Z,1011.86
2019-05-16T09:24:13.573Z,1011.88
2019-05-16T09:25:13.567Z,1011.84
2019-05-16T09:26:16.990Z,1011.86
2019-05-16T09:27:13.604Z,1011.87
2019-05-16T09:28:13.555Z,1011.87
2019-05-16T09:29:13.554Z,1011.85
2019-05-16T09:30:13.553Z,1011.85
2019-05-16T09:31:13.594Z,1011.85
2019-05-16T09:32:17.875Z,1011.81
2019-05-16T09:33:13.542Z,1011.84
2019-05-16T09:34:13.566Z,1011.82
2019-05-16T09:35:13.535Z,1011.79
2019-05-16T09:36:13.532Z,1011.85
2019-05-16T09:37:13.538Z,1011.79
2019-05-16T09:38:13.529Z,1011.79
2019-05-16T09:39:13.529Z,1011.77
2019-05-16T09:40:13.528Z,1011.79
2019-05-16T09:41:13.523Z,1011.75
2019-05-16T09:42:13.518Z,1011.77
2019-05-16T09:43:13.519Z,1011.76
2019-05-16T09:44:13.535Z,1011.72
2019-05-16T09:45:13.512Z,1011.75
2019-05-16T09:46:13.507Z,1011.73
2019-05-16T09:47:13.506Z,1011.77
2019-05-16T09:48:13.504Z,1011.73
2019-05-16T09:49:22.706Z,1011.74
2019-05-16T09:50:13.504Z,1011.72
2019-05-16T09:51:13.499Z,1011.70
2019-05-16T09:52:13.497Z,1011.69
2019-05-16T09:53:13.491Z,1011.71
2019-05-16T09:54:13.494Z,1011.70
2019-05-16T09:55:13.485Z,1011.69
2019-05-16T09:56:13.486Z,1011.68
2019-05-16T09:57:13.485Z,1011.68
2019-05-16T09:58:13.482Z,1011.68
2019-05-16T09:59:13.475Z,1011.71
2019-05-16T10:00:13.476Z,1011.66
2019-05-16T10:01:13.475Z,1011.69
2019-05-16T10:02:13.474Z,1011.69
2019-05-16T10:03:13.471Z,1011.64
2019-05-16T10:04:13.472Z,1011.66
2019-05-16T10:05:13.834Z,1011.64
2019-05-16T10:06:13.463Z,1011.65
2019-05-16T10:07:13.458Z,1011.61
2019-05-16T10:08:13.461Z,1011.59
2019-05-16T10:09:13.460Z,1011.58
2019-05-16T10:10:13.469Z,1011.60
2019-05-16T10:11:13.455Z,1011.61
2019-05-16T10:12:15.434Z,1011.60
2019-05-16T10:13:13.448Z,1011.57
2019-05-16T10:14:13.445Z,1011.58
2019-05-16T10:15:13.446Z,1011.57
2019-05-16T10:16:13.447Z,1011.55
2019-05-16T10:17:13.438Z,1011.48
2019-05-16T10:18:13.438Z,1011.44
2019-05-16T10:19:13.442Z,1011.48
2019-05-16T10:20:13.435Z,1011.44
2019-05-16T10:21:17.781Z,1011.41
2019-05-16T10:22:13.436Z,1011.40
2019-05-16T10:23:14.965Z,1011.38
2019-05-16T10:24:13.435Z,1011.38
2019-05-16T10:25:13.429Z,1011.36
2019-05-16T10:26:13.430Z,1011.40
2019-05-16T10:27:13.426Z,1011.38
2019-05-16T10:28:13.424Z,1011.37
2019-05-16T10:29:13.428Z,1011.35
2019-05-16T10:30:13.428Z,1011.35
2019-05-16T10:31:13.422Z,1011.33
2019-05-16T10:32:13.426Z,1011.31
2019-05-16T10:33:13.533Z,1011.29
2019-05-16T10:34:13.423Z,1011.27
2019-05-16T10:35:13.420Z,1011.28
2019-05-16T10:36:13.435Z,1011.23
2019-05-16T10:37:13.416Z,1011.21
2019-05-16T10:38:13.423Z,1011.24
2019-05-16T10:39:13.414Z,1011.16
2019-05-16T10:40:13.416Z,1011.12
2019-05-16T10:41:13.416Z,1011.17
2019-05-16T10:42:24.892Z,1011.17
2019-05-16T10:43:13.421Z,1011.16
2019-05-16T10:44:13.415Z,1011.14
2019-05-16T10:45:13.411Z,1011.12
2019-05-16T10:46:13.412Z,1011.12
2019-05-16T10:47:13.414Z,1011.18
2019-05-16T10:48:13.413Z,1011.12
2019-05-16T10:49:13.410Z,1011.13
2019-05-16T10:50:13.407Z,1011.11
2019-05-16T10:51:13.410Z,1011.10
2019-05-16T10:52:13.407Z,1011.07
2019-05-16T10:53:32.478Z,1011.09
2019-05-16T10:54:14.394Z,1011.06
2019-05-16T10:55:13.443Z,1011.10
2019-05-16T10:56:13.443Z,1011.08
2019-05-16T10:57:13.453Z,1011.05
2019-05-16T10:58:13.405Z,1011.00
2019-05-16T10:59:53.161Z,1011.00
2019-05-16T11:00:34.950Z,1011.01
2019-05-16T11:01:24.291Z,1011.01
2019-05-16T11:02:13.506Z,1010.95
2019-05-16T11:03:13.405Z,1010.93
2019-05-16T11:04:27.954Z,1010.88
2019-05-16T11:05:29.372Z,1010.89
2019-05-16T11:06:24.742Z,1011.00
2019-05-16T11:07:13.406Z,1010.94
2019-05-16T11:08:13.456Z,1010.93
2019-05-16T11:09:13.403Z,1010.99
2019-05-16T11:10:13.406Z,1010.96
2019-05-16T11:11:13.402Z,1010.94
2019-05-16T11:12:13.404Z,1010.95
2019-05-16T11:13:13.406Z,1010.97
2019-05-16T11:14:13.406Z,1010.94
2019-05-16T11:15:13.403Z,1010.98
2019-05-16T11:16:13.405Z,1010.93
2019-05-16T11:17:18.807Z,1010.90
2019-05-16T11:18:13.400Z,1010.93
2019-05-16T11:19:18.292Z,1010.94
2019-05-16T11:20:13.463Z,1010.90
2019-05-16T11:21:13.399Z,1010.88
2019-05-16T11:22:13.401Z,1010.83
2019-05-16T11:23:13.397Z,1010.85
2019-05-16T11:24:13.608Z,1010.80
2019-05-16T11:25:24.186Z,1010.83
2019-05-16T11:26:13.406Z,1010.76
2019-05-16T11:27:13.400Z,1010.77
2019-05-16T11:28:13.444Z,1010.70
2019-05-16T11:29:13.399Z,1010.71
2019-05-16T11:30:17.841Z,1010.72
2019-05-16T11:31:13.412Z,1010.66
2019-05-16T11:32:13.397Z,1010.66
2019-05-16T11:33:13.423Z,1010.63
2019-05-16T11:34:13.404Z,1010.66
2019-05-16T11:35:13.396Z,1010.57
2019-05-16T11:36:13.400Z,1010.61
2019-05-16T11:37:13.393Z,1010.62
2019-05-16T11:38:13.456Z,1010.59
2019-05-16T11:39:13.409Z,1010.52
2019-05-16T11:40:13.393Z,1010.52
2019-05-16T11:41:13.389Z,1010.52
2019-05-16T11:42:13.387Z,1010.46
2019-05-16T11:43:18.230Z,1010.42
2019-05-16T11:44:13.385Z,1010.47
2019-05-16T11:45:13.390Z,1010.41
2019-05-16T11:46:15.213Z,1010.37
2019-05-16T11:47:13.386Z,1010.42
2019-05-16T11:48:13.392Z,1010.44
2019-05-16T11:49:13.376Z,1010.37
2019-05-16T11:50:13.373Z,1010.39
2019-05-16T11:51:13.381Z,1010.38
2019-05-16T11:52:13.375Z,1010.39
2019-05-16T11:53:13.374Z,1010.37
2019-05-16T11:54:13.364Z,1010.31
2019-05-16T11:55:13.366Z,1010.31
2019-05-16T11:56:13.369Z,1010.24
2019-05-16T11:57:13.367Z,1010.28
2019-05-16T11:58:13.361Z,1010.26
2019-05-16T11:59:13.361Z,1010.27
2019-05-16T12:00:13.361Z,1010.26
2019-05-16T12:01:13.362Z,1010.28
2019-05-16T12:02:13.351Z,1010.28
2019-05-16T12:03:13.343Z,1010.24
2019-05-16T12:04:13.348Z,1010.18
2019-05-16T12:05:13.351Z,1010.14